sensor_id;sensor_type;location;lat;lon;timestamp;temperature;humidity
69990;DHT22;57331;52.054;5.294;2023-07-13T00:04:23;17.50;48.70
69990;DHT22;57331;52.054;5.294;2023-07-13T00:06:53;16.20;61.90
69990;DHT22;57331;52.054;5.294;2023-07-13T00:09:21;17.40;48.60
69990;DHT22;57331;52.054;5.294;2023-07-13T00:11:55;16.20;62.80
69990;DHT22;57331;52.054;5.294;2023-07-13T00:14:24;18.30;51.80
69990;DHT22;57331;52.054;5.294;2023-07-13T00:16:51;18.70;55.60
69990;DHT22;57331;52.054;5.294;2023-07-13T00:24:14;16.00;53.60
69990;DHT22;57331;52.054;5.294;2023-07-13T00:36:35;18.10;65.00
69990;DHT22;57331;52.054;5.294;2023-07-13T00:39:03;16.80;64.60
69990;DHT22;57331;52.054;5.294;2023-07-13T00:46:27;17.90;65.40
69990;DHT22;57331;52.054;5.294;2023-07-13T00:48:58;16.10;54.80
69990;DHT22;57331;52.054;5.294;2023-07-13T00:51:31;17.50;65.50
69990;DHT22;57331;52.054;5.294;2023-07-13T00:54:03;18.20;66.00
69990;DHT22;57331;52.054;5.294;2023-07-13T00:56:31;16.90;51.10
69990;DHT22;57331;52.054;5.294;2023-07-13T01:08:51;18.10;66.40
69990;DHT22;57331;52.054;5.294;2023-07-13T01:11:21;17.20;52.10
69990;DHT22;57331;52.054;5.294;2023-07-13T01:13:49;17.80;66.30
69990;DHT22;57331;52.054;5.294;2023-07-13T01:16:27;15.40;65.40
69990;DHT22;57331;52.054;5.294;2023-07-13T01:21:26;16.60;52.20
69990;DHT22;57331;52.054;5.294;2023-07-13T01:23:53;16.20;66.40
69990;DHT22;57331;52.054;5.294;2023-07-13T01:26:20;15.90;66.50
69990;DHT22;57331;52.054;5.294;2023-07-13T01:28:47;15.50;66.20
69990;DHT22;57331;52.054;5.294;2023-07-13T01:36:10;16.40;53.20
69990;DHT22;57331;52.054;5.294;2023-07-13T01:41:06;15.40;60.50
69990;DHT22;57331;52.054;5.294;2023-07-13T01:43:34;15.80;68.00
69990;DHT22;57331;52.054;5.294;2023-07-13T01:51:16;16.20;54.20
69990;DHT22;57331;52.054;5.294;2023-07-13T02:03:35;17.50;69.80
69990;DHT22;57331;52.054;5.294;2023-07-13T02:08:32;16.10;55.50
69990;DHT22;57331;52.054;5.294;2023-07-13T02:10:58;14.90;69.20
69990;DHT22;57331;52.054;5.294;2023-07-13T02:13:25;17.10;70.70
69990;DHT22;57331;52.054;5.294;2023-07-13T02:15:52;15.20;70.10
69990;DHT22;57331;52.054;5.294;2023-07-13T02:20:47;17.30;71.40
69990;DHT22;57331;52.054;5.294;2023-07-13T02:23:13;15.20;70.70
69990;DHT22;57331;52.054;5.294;2023-07-13T02:28:08;16.90;71.80
69990;DHT22;57331;52.054;5.294;2023-07-13T02:30:35;14.70;70.70
69990;DHT22;57331;52.054;5.294;2023-07-13T02:33:02;17.00;58.90
69990;DHT22;57331;52.054;5.294;2023-07-13T02:35:29;15.70;64.60
69990;DHT22;57331;52.054;5.294;2023-07-13T02:40:25;15.00;71.60
69990;DHT22;57331;52.054;5.294;2023-07-13T02:55:10;15.60;58.60
69990;DHT22;57331;52.054;5.294;2023-07-13T02:57:37;17.00;73.80
69990;DHT22;57331;52.054;5.294;2023-07-13T03:00:05;15.60;58.90
69990;DHT22;57331;52.054;5.294;2023-07-13T03:02:34;15.60;59.60
69990;DHT22;57331;52.054;5.294;2023-07-13T03:05:02;15.80;74.00
69990;DHT22;57331;52.054;5.294;2023-07-13T03:07:30;14.50;73.50
69990;DHT22;57331;52.054;5.294;2023-07-13T03:15:05;15.20;61.00
69990;DHT22;57331;52.054;5.294;2023-07-13T03:22:31;16.50;75.30
69990;DHT22;57331;52.054;5.294;2023-07-13T03:29:54;15.20;75.40
69990;DHT22;57331;52.054;5.294;2023-07-13T03:34:49;15.00;75.30
69990;DHT22;57331;52.054;5.294;2023-07-13T03:42:11;16.90;76.60
69990;DHT22;57331;52.054;5.294;2023-07-13T03:44:40;16.20;76.30
69990;DHT22;57331;52.054;5.294;2023-07-13T03:49:35;16.40;76.50
69990;DHT22;57331;52.054;5.294;2023-07-13T03:56:58;16.50;76.50
69990;DHT22;57331;52.054;5.294;2023-07-13T04:09:16;16.80;76.90
69990;DHT22;57331;52.054;5.294;2023-07-13T04:11:43;16.90;77.10
69990;DHT22;57331;52.054;5.294;2023-07-13T04:14:10;14.50;68.10
69990;DHT22;57331;52.054;5.294;2023-07-13T04:16:37;17.10;77.40
69990;DHT22;57331;52.054;5.294;2023-07-13T04:21:32;16.30;63.40
69990;DHT22;57331;52.054;5.294;2023-07-13T04:26:26;15.70;77.10
69990;DHT22;57331;52.054;5.294;2023-07-13T04:28:53;15.90;77.10
69990;DHT22;57331;52.054;5.294;2023-07-13T04:33:49;15.80;63.20
69990;DHT22;57331;52.054;5.294;2023-07-13T04:38:44;17.30;78.30
69990;DHT22;57331;52.054;5.294;2023-07-13T04:41:13;14.60;63.80
69990;DHT22;57331;52.054;5.294;2023-07-13T04:43:41;17.10;78.40
69990;DHT22;57331;52.054;5.294;2023-07-13T04:46:11;16.10;63.20
69990;DHT22;57331;52.054;5.294;2023-07-13T04:56:02;16.40;63.30
69990;DHT22;57331;52.054;5.294;2023-07-13T05:01:05;15.50;76.70
69990;DHT22;57331;52.054;5.294;2023-07-13T05:03:32;15.90;77.50
69990;DHT22;57331;52.054;5.294;2023-07-13T05:06:05;13.20;62.00
69990;DHT22;57331;52.054;5.294;2023-07-13T05:11:01;16.50;63.40
69990;DHT22;57331;52.054;5.294;2023-07-13T05:16:01;16.60;63.40
69990;DHT22;57331;52.054;5.294;2023-07-13T05:18:29;17.20;77.90
69990;DHT22;57331;52.054;5.294;2023-07-13T05:20:58;15.50;73.70
69990;DHT22;57331;52.054;5.294;2023-07-13T05:23:25;15.50;76.90
69990;DHT22;57331;52.054;5.294;2023-07-13T05:25:52;17.80;78.30
69990;DHT22;57331;52.054;5.294;2023-07-13T05:30:47;16.80;65.00
69990;DHT22;57331;52.054;5.294;2023-07-13T05:40:36;17.50;78.30
69990;DHT22;57331;52.054;5.294;2023-07-13T06:00:16;18.10;77.30
69990;DHT22;57331;52.054;5.294;2023-07-13T06:05:10;16.40;64.00
69990;DHT22;57331;52.054;5.294;2023-07-13T06:07:38;17.80;63.90
69990;DHT22;57331;52.054;5.294;2023-07-13T06:10:05;19.00;77.50
69990;DHT22;57331;52.054;5.294;2023-07-13T06:12:32;16.50;76.00
69990;DHT22;57331;52.054;5.294;2023-07-13T06:14:59;17.60;76.50
69990;DHT22;57331;52.054;5.294;2023-07-13T06:17:26;16.60;67.10
69990;DHT22;57331;52.054;5.294;2023-07-13T06:29:43;18.10;74.90
69990;DHT22;57331;52.054;5.294;2023-07-13T06:32:11;18.70;74.90
69990;DHT22;57331;52.054;5.294;2023-07-13T06:34:38;18.50;74.30
69990;DHT22;57331;52.054;5.294;2023-07-13T06:37:09;18.40;60.80
69990;DHT22;57331;52.054;5.294;2023-07-13T06:39:36;17.70;73.90
69990;DHT22;57331;52.054;5.294;2023-07-13T06:51:53;19.80;73.80
69990;DHT22;57331;52.054;5.294;2023-07-13T06:56:47;19.50;74.10
69990;DHT22;57331;52.054;5.294;2023-07-13T07:04:09;18.50;72.60
69990;DHT22;57331;52.054;5.294;2023-07-13T07:06:36;20.60;73.30
69990;DHT22;57331;52.054;5.294;2023-07-13T07:23:50;18.60;69.90
69990;DHT22;57331;52.054;5.294;2023-07-13T07:41:14;18.40;69.00
69990;DHT22;57331;52.054;5.294;2023-07-13T07:43:44;19.50;69.90
69990;DHT22;57331;52.054;5.294;2023-07-13T07:53:33;19.00;69.70
69990;DHT22;57331;52.054;5.294;2023-07-13T08:03:48;22.00;68.20
69990;DHT22;57331;52.054;5.294;2023-07-13T08:06:18;21.90;66.30
69990;DHT22;57331;52.054;5.294;2023-07-13T08:08:49;20.50;61.40
69990;DHT22;57331;52.054;5.294;2023-07-13T08:11:17;20.30;53.40
69990;DHT22;57331;52.054;5.294;2023-07-13T08:16:17;19.20;65.30
69990;DHT22;57331;52.054;5.294;2023-07-13T08:18:44;19.30;64.80
69990;DHT22;57331;52.054;5.294;2023-07-13T08:21:11;21.40;65.40
69990;DHT22;57331;52.054;5.294;2023-07-13T08:26:06;20.60;61.00
69990;DHT22;57331;52.054;5.294;2023-07-13T08:31:05;20.20;56.30
69990;DHT22;57331;52.054;5.294;2023-07-13T08:35:59;22.20;49.80
69990;DHT22;57331;52.054;5.294;2023-07-13T08:38:26;19.80;57.50
69990;DHT22;57331;52.054;5.294;2023-07-13T08:40:55;21.00;45.00
69990;DHT22;57331;52.054;5.294;2023-07-13T08:43:33;19.80;57.20
69990;DHT22;57331;52.054;5.294;2023-07-13T08:46:35;20.10;48.80
69990;DHT22;57331;52.054;5.294;2023-07-13T08:49:11;20.80;47.00
69990;DHT22;57331;52.054;5.294;2023-07-13T08:51:54;22.10;61.60
69990;DHT22;57331;52.054;5.294;2023-07-13T08:54:31;20.60;47.70
69990;DHT22;57331;52.054;5.294;2023-07-13T08:57:03;20.20;60.90
69990;DHT22;57331;52.054;5.294;2023-07-13T08:59:35;21.00;61.50
69990;DHT22;57331;52.054;5.294;2023-07-13T09:05:03;19.60;60.90
69990;DHT22;57331;52.054;5.294;2023-07-13T09:07:58;21.10;60.10
69990;DHT22;57331;52.054;5.294;2023-07-13T09:10:31;20.50;47.70
69990;DHT22;57331;52.054;5.294;2023-07-13T09:15:51;21.50;47.10
69990;DHT22;57331;52.054;5.294;2023-07-13T09:18:23;22.50;40.10
69990;DHT22;57331;52.054;5.294;2023-07-13T09:20:57;22.30;38.30
69990;DHT22;57331;52.054;5.294;2023-07-13T09:23:27;21.50;51.30
69990;DHT22;57331;52.054;5.294;2023-07-13T09:26:19;21.10;51.80
69990;DHT22;57331;52.054;5.294;2023-07-13T09:29:03;22.20;40.60
69990;DHT22;57331;52.054;5.294;2023-07-13T09:31:43;23.40;41.20
69990;DHT22;57331;52.054;5.294;2023-07-13T09:34:12;22.50;39.80
69990;DHT22;57331;52.054;5.294;2023-07-13T09:44:30;21.30;47.50
69990;DHT22;57331;52.054;5.294;2023-07-13T09:49:27;22.10;37.40
69990;DHT22;57331;52.054;5.294;2023-07-13T09:52:04;21.00;49.70
69990;DHT22;57331;52.054;5.294;2023-07-13T09:54:35;22.50;50.70
69990;DHT22;57331;52.054;5.294;2023-07-13T09:57:15;22.00;51.40
69990;DHT22;57331;52.054;5.294;2023-07-13T09:59:47;22.90;54.20
69990;DHT22;57331;52.054;5.294;2023-07-13T10:02:31;20.40;50.50
69990;DHT22;57331;52.054;5.294;2023-07-13T10:05:11;22.10;57.30
69990;DHT22;57331;52.054;5.294;2023-07-13T10:07:43;21.60;57.80
69990;DHT22;57331;52.054;5.294;2023-07-13T10:10:22;21.30;45.60
69990;DHT22;57331;52.054;5.294;2023-07-13T10:12:50;22.80;58.00
69990;DHT22;57331;52.054;5.294;2023-07-13T10:15:20;21.70;55.40
69990;DHT22;57331;52.054;5.294;2023-07-13T10:17:55;21.90;54.20
69990;DHT22;57331;52.054;5.294;2023-07-13T10:20:23;22.50;43.00
69990;DHT22;57331;52.054;5.294;2023-07-13T10:22:56;23.30;37.50
69990;DHT22;57331;52.054;5.294;2023-07-13T10:25:28;21.50;48.90
69990;DHT22;57331;52.054;5.294;2023-07-13T10:28:05;22.80;37.80
69990;DHT22;57331;52.054;5.294;2023-07-13T10:30:35;21.50;47.30
69990;DHT22;57331;52.054;5.294;2023-07-13T10:33:10;21.40;44.00
69990;DHT22;57331;52.054;5.294;2023-07-13T10:35:40;23.30;45.80
69990;DHT22;57331;52.054;5.294;2023-07-13T10:38:13;24.20;44.60
69990;DHT22;57331;52.054;5.294;2023-07-13T10:40:52;22.80;31.00
69990;DHT22;57331;52.054;5.294;2023-07-13T10:43:37;22.00;41.60
69990;DHT22;57331;52.054;5.294;2023-07-13T10:46:10;24.20;40.80
69990;DHT22;57331;52.054;5.294;2023-07-13T10:48:39;22.70;38.20
69990;DHT22;57331;52.054;5.294;2023-07-13T10:51:07;25.50;38.90
69990;DHT22;57331;52.054;5.294;2023-07-13T10:53:35;23.00;28.90
69990;DHT22;57331;52.054;5.294;2023-07-13T10:58:47;23.00;35.80
69990;DHT22;57331;52.054;5.294;2023-07-13T11:01:40;23.10;37.10
69990;DHT22;57331;52.054;5.294;2023-07-13T11:04:12;24.50;26.90
69990;DHT22;57331;52.054;5.294;2023-07-13T11:06:41;25.80;29.60
69990;DHT22;57331;52.054;5.294;2023-07-13T11:09:34;25.30;37.00
69990;DHT22;57331;52.054;5.294;2023-07-13T11:12:28;25.20;28.70
69990;DHT22;57331;52.054;5.294;2023-07-13T11:17:51;24.60;27.00
69990;DHT22;57331;52.054;5.294;2023-07-13T11:20:22;25.80;37.20
69990;DHT22;57331;52.054;5.294;2023-07-13T11:23:17;25.00;25.30
69990;DHT22;57331;52.054;5.294;2023-07-13T11:25:45;23.80;32.80
69990;DHT22;57331;52.054;5.294;2023-07-13T11:36:02;27.10;33.30
69990;DHT22;57331;52.054;5.294;2023-07-13T11:38:43;24.60;31.10
69990;DHT22;57331;52.054;5.294;2023-07-13T11:41:25;25.90;23.50
69990;DHT22;57331;52.054;5.294;2023-07-13T11:46:34;24.30;37.60
69990;DHT22;57331;52.054;5.294;2023-07-13T11:51:31;24.00;37.10
69990;DHT22;57331;52.054;5.294;2023-07-13T11:54:03;22.40;43.20
69990;DHT22;57331;52.054;5.294;2023-07-13T11:56:30;24.90;45.90
69990;DHT22;57331;52.054;5.294;2023-07-13T11:59:07;24.60;45.20
69990;DHT22;57331;52.054;5.294;2023-07-13T12:01:36;22.20;43.10
69990;DHT22;57331;52.054;5.294;2023-07-13T12:04:25;22.30;42.90
69990;DHT22;57331;52.054;5.294;2023-07-13T12:07:19;22.90;33.30
69990;DHT22;57331;52.054;5.294;2023-07-13T12:12:21;25.40;39.00
69990;DHT22;57331;52.054;5.294;2023-07-13T12:14:52;23.40;27.40
69990;DHT22;57331;52.054;5.294;2023-07-13T12:17:23;24.90;26.60
69990;DHT22;57331;52.054;5.294;2023-07-13T12:19:52;25.10;34.40
69990;DHT22;57331;52.054;5.294;2023-07-13T12:22:20;24.50;25.30
69990;DHT22;57331;52.054;5.294;2023-07-13T12:24:48;23.20;35.10
69990;DHT22;57331;52.054;5.294;2023-07-13T12:27:25;23.90;36.30
69990;DHT22;57331;52.054;5.294;2023-07-13T12:30:01;24.50;25.90
69990;DHT22;57331;52.054;5.294;2023-07-13T12:35:16;24.30;25.70
69990;DHT22;57331;52.054;5.294;2023-07-13T12:37:48;25.00;22.80
69990;DHT22;57331;52.054;5.294;2023-07-13T12:40:17;25.30;21.60
69990;DHT22;57331;52.054;5.294;2023-07-13T12:42:47;25.30;22.40
69990;DHT22;57331;52.054;5.294;2023-07-13T12:45:27;24.80;28.50
69990;DHT22;57331;52.054;5.294;2023-07-13T12:48:03;27.30;31.30
69990;DHT22;57331;52.054;5.294;2023-07-13T12:50:41;26.20;28.30
69990;DHT22;57331;52.054;5.294;2023-07-13T12:53:29;27.00;28.30
69990;DHT22;57331;52.054;5.294;2023-07-13T12:56:02;26.40;20.30
69990;DHT22;57331;52.054;5.294;2023-07-13T12:58:36;24.90;27.90
69990;DHT22;57331;52.054;5.294;2023-07-13T13:01:05;24.80;27.30
69990;DHT22;57331;52.054;5.294;2023-07-13T13:03:44;26.30;20.60
69990;DHT22;57331;52.054;5.294;2023-07-13T13:08:47;26.30;27.50
69990;DHT22;57331;52.054;5.294;2023-07-13T13:11:16;26.00;28.00
69990;DHT22;57331;52.054;5.294;2023-07-13T13:13:43;27.50;25.20
69990;DHT22;57331;52.054;5.294;2023-07-13T13:18:46;27.90;26.90
69990;DHT22;57331;52.054;5.294;2023-07-13T13:23:41;26.10;23.80
69990;DHT22;57331;52.054;5.294;2023-07-13T13:26:11;27.20;16.90
69990;DHT22;57331;52.054;5.294;2023-07-13T13:28:39;26.90;24.20
69990;DHT22;57331;52.054;5.294;2023-07-13T13:31:07;27.60;25.40
69990;DHT22;57331;52.054;5.294;2023-07-13T13:33:34;27.10;25.50
69990;DHT22;57331;52.054;5.294;2023-07-13T13:36:01;27.50;24.20
69990;DHT22;57331;52.054;5.294;2023-07-13T13:38:28;25.90;23.40
69990;DHT22;57331;52.054;5.294;2023-07-13T13:40:55;25.80;18.00
69990;DHT22;57331;52.054;5.294;2023-07-13T13:43:26;27.40;17.00
69990;DHT22;57331;52.054;5.294;2023-07-13T13:45:57;28.30;25.50
69990;DHT22;57331;52.054;5.294;2023-07-13T13:48:31;28.50;25.60
69990;DHT22;57331;52.054;5.294;2023-07-13T13:51:00;28.60;25.10
69990;DHT22;57331;52.054;5.294;2023-07-13T13:53:28;26.60;23.70
69990;DHT22;57331;52.054;5.294;2023-07-13T13:55:55;26.40;17.20
69990;DHT22;57331;52.054;5.294;2023-07-13T13:58:22;27.60;15.90
69990;DHT22;57331;52.054;5.294;2023-07-13T14:03:18;27.50;15.10
69990;DHT22;57331;52.054;5.294;2023-07-13T14:05:47;27.50;23.30
69990;DHT22;57331;52.054;5.294;2023-07-13T14:08:16;27.70;23.80
69990;DHT22;57331;52.054;5.294;2023-07-13T14:10:49;26.00;23.10
69990;DHT22;57331;52.054;5.294;2023-07-13T14:13:21;27.40;15.90
69990;DHT22;57331;52.054;5.294;2023-07-13T14:15:49;27.10;19.60
69990;DHT22;57331;52.054;5.294;2023-07-13T14:18:16;28.50;22.00
69990;DHT22;57331;52.054;5.294;2023-07-13T14:23:14;28.70;14.60
69990;DHT22;57331;52.054;5.294;2023-07-13T14:25:42;27.20;21.10
69990;DHT22;57331;52.054;5.294;2023-07-13T14:28:24;28.50;14.30
69990;DHT22;57331;52.054;5.294;2023-07-13T14:30:52;30.00;23.50
69990;DHT22;57331;52.054;5.294;2023-07-13T14:35:49;30.00;17.10
69990;DHT22;57331;52.054;5.294;2023-07-13T14:38:19;27.40;21.70
69990;DHT22;57331;52.054;5.294;2023-07-13T14:40:47;28.30;22.30
69990;DHT22;57331;52.054;5.294;2023-07-13T14:43:16;28.20;14.60
69990;DHT22;57331;52.054;5.294;2023-07-13T14:45:46;27.90;22.30
69990;DHT22;57331;52.054;5.294;2023-07-13T14:50:42;29.60;21.60
69990;DHT22;57331;52.054;5.294;2023-07-13T14:53:10;29.80;22.80
69990;DHT22;57331;52.054;5.294;2023-07-13T14:55:38;28.50;15.10
69990;DHT22;57331;52.054;5.294;2023-07-13T14:58:06;29.80;23.70
69990;DHT22;57331;52.054;5.294;2023-07-13T15:00:33;27.50;22.60
69990;DHT22;57331;52.054;5.294;2023-07-13T15:03:01;29.10;14.90
69990;DHT22;57331;52.054;5.294;2023-07-13T15:05:30;29.20;14.90
69990;DHT22;57331;52.054;5.294;2023-07-13T15:08:02;28.50;20.80
69990;DHT22;57331;52.054;5.294;2023-07-13T15:10:32;28.40;18.90
69990;DHT22;57331;52.054;5.294;2023-07-13T15:13:04;28.90;12.30
69990;DHT22;57331;52.054;5.294;2023-07-13T15:15:40;28.50;19.70
69990;DHT22;57331;52.054;5.294;2023-07-13T15:18:12;27.50;18.30
69990;DHT22;57331;52.054;5.294;2023-07-13T15:20:39;29.70;21.10
69990;DHT22;57331;52.054;5.294;2023-07-13T15:23:08;29.50;19.10
69990;DHT22;57331;52.054;5.294;2023-07-13T15:25:36;29.20;20.30
69990;DHT22;57331;52.054;5.294;2023-07-13T15:28:03;29.30;20.90
69990;DHT22;57331;52.054;5.294;2023-07-13T15:30:34;29.80;21.40
69990;DHT22;57331;52.054;5.294;2023-07-13T15:33:19;28.50;13.00
69990;DHT22;57331;52.054;5.294;2023-07-13T15:38:18;28.50;13.70
69990;DHT22;57331;52.054;5.294;2023-07-13T15:40:48;27.20;20.00
69990;DHT22;57331;52.054;5.294;2023-07-13T15:43:16;30.00;19.80
69990;DHT22;57331;52.054;5.294;2023-07-13T15:45:44;29.10;21.70
69990;DHT22;57331;52.054;5.294;2023-07-13T15:50:44;28.30;18.10
69990;DHT22;57331;52.054;5.294;2023-07-13T15:55:39;30.10;22.40
69990;DHT22;57331;52.054;5.294;2023-07-13T15:58:11;30.10;20.80
69990;DHT22;57331;52.054;5.294;2023-07-13T16:00:38;29.40;21.50
69990;DHT22;57331;52.054;5.294;2023-07-13T16:03:09;30.20;22.20
69990;DHT22;57331;52.054;5.294;2023-07-13T16:05:36;30.40;21.50
69990;DHT22;57331;52.054;5.294;2023-07-13T16:08:05;30.10;21.90
69990;DHT22;57331;52.054;5.294;2023-07-13T16:10:35;27.70;21.70
69990;DHT22;57331;52.054;5.294;2023-07-13T16:13:05;26.50;22.30
69990;DHT22;57331;52.054;5.294;2023-07-13T16:15:31;26.70;20.20
69990;DHT22;57331;52.054;5.294;2023-07-13T16:22:55;26.70;18.90
69990;DHT22;57331;52.054;5.294;2023-07-13T16:25:25;28.60;24.00
69990;DHT22;57331;52.054;5.294;2023-07-13T16:27:54;27.10;16.20
69990;DHT22;57331;52.054;5.294;2023-07-13T16:30:29;25.70;23.10
69990;DHT22;57331;52.054;5.294;2023-07-13T16:32:59;27.90;24.40
69990;DHT22;57331;52.054;5.294;2023-07-13T16:35:39;27.60;15.90
69990;DHT22;57331;52.054;5.294;2023-07-13T16:38:17;28.70;23.70
69990;DHT22;57331;52.054;5.294;2023-07-13T16:40:45;28.00;22.90
69990;DHT22;57331;52.054;5.294;2023-07-13T16:43:16;27.20;21.10
69990;DHT22;57331;52.054;5.294;2023-07-13T16:45:48;29.20;21.90
69990;DHT22;57331;52.054;5.294;2023-07-13T16:48:19;29.20;23.00
69990;DHT22;57331;52.054;5.294;2023-07-13T16:50:53;26.50;22.10
69990;DHT22;57331;52.054;5.294;2023-07-13T16:53:25;27.10;19.40
69990;DHT22;57331;52.054;5.294;2023-07-13T16:55:53;28.90;24.00
69990;DHT22;57331;52.054;5.294;2023-07-13T16:58:24;28.90;23.60
69990;DHT22;57331;52.054;5.294;2023-07-13T17:00:52;27.60;14.60
69990;DHT22;57331;52.054;5.294;2023-07-13T17:05:47;26.00;21.60
69990;DHT22;57331;52.054;5.294;2023-07-13T17:08:23;28.10;23.20
69990;DHT22;57331;52.054;5.294;2023-07-13T17:10:55;28.20;23.40
69990;DHT22;57331;52.054;5.294;2023-07-13T17:13:24;27.30;15.00
69990;DHT22;57331;52.054;5.294;2023-07-13T17:15:53;26.60;16.50
69990;DHT22;57331;52.054;5.294;2023-07-13T17:18:25;28.10;24.50
69990;DHT22;57331;52.054;5.294;2023-07-13T17:20:53;28.20;24.40
69990;DHT22;57331;52.054;5.294;2023-07-13T17:23:25;27.90;24.60
69990;DHT22;57331;52.054;5.294;2023-07-13T17:25:53;26.50;15.80
69990;DHT22;57331;52.054;5.294;2023-07-13T17:28:22;25.20;23.20
69990;DHT22;57331;52.054;5.294;2023-07-13T17:30:51;27.80;25.00
69990;DHT22;57331;52.054;5.294;2023-07-13T17:35:56;27.10;26.20
69990;DHT22;57331;52.054;5.294;2023-07-13T17:38:37;25.70;17.50
69990;DHT22;57331;52.054;5.294;2023-07-13T17:41:08;24.80;25.30
69990;DHT22;57331;52.054;5.294;2023-07-13T17:43:38;24.80;24.60
69990;DHT22;57331;52.054;5.294;2023-07-13T17:46:14;24.40;25.00
69990;DHT22;57331;52.054;5.294;2023-07-13T17:48:43;26.40;26.50
69990;DHT22;57331;52.054;5.294;2023-07-13T17:51:13;27.30;27.20
69990;DHT22;57331;52.054;5.294;2023-07-13T17:53:40;25.80;25.70
69990;DHT22;57331;52.054;5.294;2023-07-13T17:56:10;27.40;26.70
69990;DHT22;57331;52.054;5.294;2023-07-13T17:58:39;26.10;17.60
69990;DHT22;57331;52.054;5.294;2023-07-13T18:01:13;25.00;25.50
69990;DHT22;57331;52.054;5.294;2023-07-13T18:03:43;25.60;25.70
69990;DHT22;57331;52.054;5.294;2023-07-13T18:06:14;27.10;27.10
69990;DHT22;57331;52.054;5.294;2023-07-13T18:08:50;25.70;18.60
69990;DHT22;57331;52.054;5.294;2023-07-13T18:13:47;27.20;28.00
69990;DHT22;57331;52.054;5.294;2023-07-13T18:16:21;24.70;27.10
69990;DHT22;57331;52.054;5.294;2023-07-13T18:21:19;25.10;28.10
69990;DHT22;57331;52.054;5.294;2023-07-13T18:23:48;25.40;19.70
69990;DHT22;57331;52.054;5.294;2023-07-13T18:26:17;25.60;19.90
69990;DHT22;57331;52.054;5.294;2023-07-13T18:28:45;24.70;23.20
69990;DHT22;57331;52.054;5.294;2023-07-13T18:31:20;25.90;27.90
69990;DHT22;57331;52.054;5.294;2023-07-13T18:33:50;24.80;27.40
69990;DHT22;57331;52.054;5.294;2023-07-13T18:36:21;25.70;19.40
69990;DHT22;57331;52.054;5.294;2023-07-13T18:38:48;25.80;28.30
69990;DHT22;57331;52.054;5.294;2023-07-13T18:41:17;25.30;20.10
69990;DHT22;57331;52.054;5.294;2023-07-13T18:43:45;26.30;29.80
69990;DHT22;57331;52.054;5.294;2023-07-13T18:46:29;24.70;20.80
69990;DHT22;57331;52.054;5.294;2023-07-13T18:49:00;25.70;24.20
69990;DHT22;57331;52.054;5.294;2023-07-13T18:51:27;23.00;30.60
69990;DHT22;57331;52.054;5.294;2023-07-13T18:53:54;23.10;31.50
69990;DHT22;57331;52.054;5.294;2023-07-13T18:58:49;24.40;33.40
69990;DHT22;57331;52.054;5.294;2023-07-13T19:01:33;23.80;33.30
69990;DHT22;57331;52.054;5.294;2023-07-13T19:04:26;22.10;32.80
69990;DHT22;57331;52.054;5.294;2023-07-13T19:11:49;22.50;33.90
69990;DHT22;57331;52.054;5.294;2023-07-13T19:14:20;23.20;24.30
69990;DHT22;57331;52.054;5.294;2023-07-13T19:16:49;23.00;24.60
69990;DHT22;57331;52.054;5.294;2023-07-13T19:19:18;22.90;24.80
69990;DHT22;57331;52.054;5.294;2023-07-13T19:21:53;22.60;35.40
69990;DHT22;57331;52.054;5.294;2023-07-13T19:24:22;22.70;25.40
69990;DHT22;57331;52.054;5.294;2023-07-13T19:26:51;24.10;36.50
69990;DHT22;57331;52.054;5.294;2023-07-13T19:29:21;22.50;25.80
69990;DHT22;57331;52.054;5.294;2023-07-13T19:34:20;22.40;26.30
69990;DHT22;57331;52.054;5.294;2023-07-13T19:37:33;22.20;26.60
69990;DHT22;57331;52.054;5.294;2023-07-13T19:39:41;23.40;38.60
69990;DHT22;57331;52.054;5.294;2023-07-13T19:42:16;20.90;32.00
69990;DHT22;57331;52.054;5.294;2023-07-13T19:44:44;21.20;38.10
69990;DHT22;57331;52.054;5.294;2023-07-13T19:47:15;23.40;39.70
69990;DHT22;57331;52.054;5.294;2023-07-13T19:52:12;21.80;28.20
69990;DHT22;57331;52.054;5.294;2023-07-13T19:54:39;23.10;40.60
69990;DHT22;57331;52.054;5.294;2023-07-13T19:57:17;21.60;28.60
69990;DHT22;57331;52.054;5.294;2023-07-13T19:59:45;20.30;40.20
69990;DHT22;57331;52.054;5.294;2023-07-13T20:04:44;21.30;33.10
69990;DHT22;57331;52.054;5.294;2023-07-13T20:07:19;21.30;29.80
69990;DHT22;57331;52.054;5.294;2023-07-13T20:09:48;21.20;30.10
69990;DHT22;57331;52.054;5.294;2023-07-13T20:12:18;21.80;34.90
69990;DHT22;57331;52.054;5.294;2023-07-13T20:14:46;21.00;31.00
69990;DHT22;57331;52.054;5.294;2023-07-13T20:34:37;20.30;34.50
69990;DHT22;57331;52.054;5.294;2023-07-13T20:47:12;20.70;42.30
69990;DHT22;57331;52.054;5.294;2023-07-13T20:49:39;18.90;48.10
69990;DHT22;57331;52.054;5.294;2023-07-13T20:52:12;19.80;36.30
69990;DHT22;57331;52.054;5.294;2023-07-13T20:54:40;18.80;48.70
69990;DHT22;57331;52.054;5.294;2023-07-13T20:59:39;21.20;50.60
69990;DHT22;57331;52.054;5.294;2023-07-13T21:02:27;20.80;50.70
69990;DHT22;57331;52.054;5.294;2023-07-13T21:07:23;19.50;46.90
69990;DHT22;57331;52.054;5.294;2023-07-13T21:12:18;20.60;51.50
69990;DHT22;57331;52.054;5.294;2023-07-13T21:14:45;18.30;50.50
69990;DHT22;57331;52.054;5.294;2023-07-13T21:19:40;19.40;38.80
69990;DHT22;57331;52.054;5.294;2023-07-13T21:22:13;18.30;51.50
69990;DHT22;57331;52.054;5.294;2023-07-13T21:32:10;19.20;40.00
69990;DHT22;57331;52.054;5.294;2023-07-13T21:34:39;19.10;53.10
69990;DHT22;57331;52.054;5.294;2023-07-13T21:37:16;19.10;40.60
69990;DHT22;57331;52.054;5.294;2023-07-13T21:39:49;19.30;53.90
69990;DHT22;57331;52.054;5.294;2023-07-13T21:52:25;18.80;41.60
69990;DHT22;57331;52.054;5.294;2023-07-13T21:54:53;18.70;42.00
69990;DHT22;57331;52.054;5.294;2023-07-13T21:57:20;19.40;55.90
69990;DHT22;57331;52.054;5.294;2023-07-13T22:07:11;18.40;43.00
69990;DHT22;57331;52.054;5.294;2023-07-13T22:12:06;19.80;57.80
69990;DHT22;57331;52.054;5.294;2023-07-13T22:14:35;17.80;56.90
69990;DHT22;57331;52.054;5.294;2023-07-13T22:29:21;18.00;58.40
69990;DHT22;57331;52.054;5.294;2023-07-13T22:34:20;16.80;55.80
69990;DHT22;57331;52.054;5.294;2023-07-13T22:36:47;17.90;45.40
69990;DHT22;57331;52.054;5.294;2023-07-13T22:39:20;18.00;58.50
69990;DHT22;57331;52.054;5.294;2023-07-13T22:41:50;18.90;58.80
69990;DHT22;57331;52.054;5.294;2023-07-13T22:44:22;19.10;55.80
69990;DHT22;57331;52.054;5.294;2023-07-13T22:46:51;16.60;59.20
69990;DHT22;57331;52.054;5.294;2023-07-13T22:49:25;17.60;46.40
69990;DHT22;57331;52.054;5.294;2023-07-13T22:51:53;17.40;60.10
69990;DHT22;57331;52.054;5.294;2023-07-13T23:04:25;16.90;60.50
69990;DHT22;57331;52.054;5.294;2023-07-13T23:06:53;17.40;46.90
69990;DHT22;57331;52.054;5.294;2023-07-13T23:09:22;17.30;47.30
69990;DHT22;57331;52.054;5.294;2023-07-13T23:11:50;17.10;61.40